Time;durP1;ratioP1;P1;durP2;ratioP2;P2;SDS_P1;SDS_P2;PMS_P1;PMS_P2;Temp;Humidity;BMP_temperature;BMP_pressure;BME280_temperature;BME280_humidity;BME280_pressure;Samples;Min_cycle;Max_cycle;Signal;HPM_P1;HPM_P2
2021/05/11 00:01:00;;;;;;;14.93;4.63;;;;;;;;;;4922867;28;20038;-58
2021/05/11 00:03:26;;;;;;;11.48;4.47;;;;;;;;;;4926163;28;20031;-58
2021/05/11 00:05:57;;;;;;;12.43;4.63;;;;;;;;;;4926222;28;20039;-58
2021/05/11 00:08:27;;;;;;;24.42;4.57;;;;;;;;;;4935759;28;20064;-59
2021/05/11 00:10:55;;;;;;;15.95;5.15;;;;;;;;;;4922704;28;20035;-58
2021/05/11 00:13:23;;;;;;;19.30;5.03;;;;;;;;;;4937591;28;20111;-59
2021/05/11 00:15:53;;;;;;;21.05;4.65;;;;;;;;;;4923067;28;20040;-58
2021/05/11 00:18:21;;;;;;;14.10;4.35;;;;;;;;;;4924324;28;20031;-58
2021/05/11 00:20:47;;;;;;;22.23;4.43;;;;;;;;;;4918896;28;20035;-58
2021/05/11 00:23:15;;;;;;;20.83;5.22;;;;;;;;;;4921989;28;20094;-58
2021/05/11 00:25:46;;;;;;;14.98;4.28;;;;;;;;;;4922852;28;20051;-58
2021/05/11 00:28:11;;;;;;;18.27;5.25;;;;;;;;;;4909768;29;20122;-58
2021/05/11 00:30:39;;;;;;;19.48;4.80;;;;;;;;;;4909451;29;20035;-58
2021/05/11 00:33:07;;;;;;;17.83;4.18;;;;;;;;;;4920266;28;20027;-58
2021/05/11 00:35:32;;;;;;;14.63;4.57;;;;;;;;;;4918994;28;20046;-58
2021/05/11 00:38:00;;;;;;;14.02;4.20;;;;;;;;;;4921652;28;20101;-59
2021/05/11 00:40:28;;;;;;;17.05;4.53;;;;;;;;;;4924480;28;20204;-58
2021/05/11 00:42:56;;;;;;;17.65;4.57;;;;;;;;;;4926464;28;20106;-58
2021/05/11 00:45:25;;;;;;;17.60;4.85;;;;;;;;;;4925747;28;20039;-58
2021/05/11 00:47:51;;;;;;;19.90;5.18;;;;;;;;;;4926563;28;20111;-58
2021/05/11 00:50:16;;;;;;;17.42;4.90;;;;;;;;;;4923796;28;20051;-58
2021/05/11 00:52:44;;;;;;;14.13;4.38;;;;;;;;;;4927781;28;20079;-58
2021/05/11 00:55:12;;;;;;;17.17;4.57;;;;;;;;;;4925814;28;20043;-58
2021/05/11 00:57:43;;;;;;;21.15;4.75;;;;;;;;;;4925815;28;20035;-58
2021/05/11 01:00:09;;;;;;;18.90;4.88;;;;;;;;;;4940167;28;20064;-58
2021/05/11 01:02:37;;;;;;;20.75;4.88;;;;;;;;;;4912170;29;20134;-58
2021/05/11 01:05:04;;;;;;;19.73;4.78;;;;;;;;;;4925421;28;20114;-58
2021/05/11 01:07:34;;;;;;;16.42;4.90;;;;;;;;;;4925444;28;20048;-58
2021/05/11 01:09:59;;;;;;;17.67;4.35;;;;;;;;;;4921355;28;20035;-58
2021/05/11 01:12:25;;;;;;;8.70;4.03;;;;;;;;;;4926781;28;20976;-59
2021/05/11 01:14:58;;;;;;;16.75;4.03;;;;;;;;;;4925204;28;20042;-59
2021/05/11 01:17:27;;;;;;;14.98;4.43;;;;;;;;;;4924419;28;20035;-58
2021/05/11 01:19:56;;;;;;;12.90;4.43;;;;;;;;;;4923821;28;20050;-59
2021/05/11 01:22:54;;;;;;;27.23;4.93;;;;;;;;;;4923332;28;20027;-58
2021/05/11 01:25:16;;;;;;;12.35;4.22;;;;;;;;;;4923884;28;20051;-58
2021/05/11 01:28:04;;;;;;;9.48;4.20;;;;;;;;;;4925126;28;20071;-58
2021/05/11 01:44:03;;;;;;;14.65;4.75;;;;;;;;;;4923430;28;20051;-58
2021/05/11 01:55:16;;;;;;;18.92;5.28;;;;;;;;;;4917289;29;20043;-58
2021/05/11 01:57:56;;;;;;;17.98;5.03;;;;;;;;;;4922581;28;20035;-58
2021/05/11 02:25:05;;;;;;;15.57;6.03;;;;;;;;;;4923582;28;20059;-59
2021/05/11 02:27:34;;;;;;;16.75;5.88;;;;;;;;;;4922765;28;20929;-58
2021/05/11 02:30:08;;;;;;;11.48;5.45;;;;;;;;;;4924424;28;20059;-59
2021/05/11 02:32:36;;;;;;;15.25;5.93;;;;;;;;;;4922761;28;20039;-59
2021/05/11 02:35:07;;;;;;;13.85;5.32;;;;;;;;;;4911345;29;20051;-59
2021/05/11 02:37:35;;;;;;;12.98;5.57;;;;;;;;;;4921500;28;20043;-58
2021/05/11 02:40:03;;;;;;;11.57;5.13;;;;;;;;;;4921339;28;21035;-58
2021/05/11 02:42:32;;;;;;;17.75;5.30;;;;;;;;;;4923107;28;20039;-58
2021/05/11 02:45:03;;;;;;;18.88;5.75;;;;;;;;;;4921255;28;20538;-56
2021/05/11 02:47:28;;;;;;;34.63;7.20;;;;;;;;;;4939536;28;20035;-55
2021/05/11 02:50:04;;;;;;;18.75;5.68;;;;;;;;;;4938381;28;20031;-54
2021/05/11 02:52:30;;;;;;;18.05;8.00;;;;;;;;;;4923812;28;20032;-52
2021/05/11 02:54:55;;;;;;;64.03;11.68;;;;;;;;;;4908443;28;20965;-55
2021/05/11 02:57:23;;;;;;;34.28;9.23;;;;;;;;;;4937242;28;20046;-52
2021/05/11 02:59:49;;;;;;;26.88;9.23;;;;;;;;;;4940120;28;20191;-52
2021/05/11 03:02:17;;;;;;;43.03;12.02;;;;;;;;;;4910030;28;20027;-52
2021/05/11 03:04:45;;;;;;;40.25;11.98;;;;;;;;;;4937663;28;20050;-53
2021/05/11 03:07:13;;;;;;;40.67;12.30;;;;;;;;;;4923690;28;20042;-53
2021/05/11 03:09:41;;;;;;;35.85;11.55;;;;;;;;;;4923324;28;20047;-51
2021/05/11 03:12:06;;;;;;;44.72;11.95;;;;;;;;;;4922703;28;20082;-52
2021/05/11 03:14:34;;;;;;;36.22;13.00;;;;;;;;;;4921572;28;20114;-52
2021/05/11 03:17:00;;;;;;;34.95;11.50;;;;;;;;;;4923944;28;20039;-53
2021/05/11 03:19:26;;;;;;;43.72;12.15;;;;;;;;;;4921964;28;20027;-53
2021/05/11 03:21:51;;;;;;;33.95;11.05;;;;;;;;;;4922855;28;20040;-53
2021/05/11 03:24:22;;;;;;;37.45;11.93;;;;;;;;;;4922694;29;20669;-53
2021/05/11 03:26:50;;;;;;;37.47;11.88;;;;;;;;;;4906720;28;20051;-54
2021/05/11 03:29:21;;;;;;;37.42;11.95;;;;;;;;;;4909944;29;20035;-54
2021/05/11 03:31:46;;;;;;;37.63;11.90;;;;;;;;;;4925547;28;20114;-54
2021/05/11 03:34:16;;;;;;;29.98;10.05;;;;;;;;;;4923288;28;20368;-54
2021/05/11 03:36:45;;;;;;;34.67;11.55;;;;;;;;;;4922426;28;20039;-54
2021/05/11 03:39:13;;;;;;;32.45;11.07;;;;;;;;;;4922514;28;20028;-54
2021/05/11 03:41:47;;;;;;;36.72;11.43;;;;;;;;;;4922567;28;20035;-55
2021/05/11 03:44:22;;;;;;;27.35;10.82;;;;;;;;;;4938163;28;20046;-55
2021/05/11 03:46:53;;;;;;;27.90;10.38;;;;;;;;;;4924333;28;20153;-54
2021/05/11 03:49:28;;;;;;;;;;;;;;;;;;4922453;28;20035;-55
2021/05/11 03:51:57;;;;;;;32.65;10.55;;;;;;;;;;4923080;28;19915;-54
2021/05/11 03:54:23;;;;;;;29.13;10.35;;;;;;;;;;4924002;28;20062;-54
2021/05/11 03:56:49;;;;;;;30.13;10.55;;;;;;;;;;4922158;28;20916;-54
2021/05/11 03:59:19;;;;;;;38.95;12.32;;;;;;;;;;4921889;28;22158;-55
2021/05/11 04:01:44;;;;;;;34.30;11.23;;;;;;;;;;4923327;28;21994;-54
2021/05/11 04:04:10;;;;;;;37.42;13.20;;;;;;;;;;4920903;28;20095;-55
2021/05/11 04:06:36;;;;;;;32.08;11.23;;;;;;;;;;4911466;28;20047;-53
2021/05/11 04:09:28;;;;;;;34.92;13.05;;;;;;;;;;4923123;28;20046;-54
2021/05/11 04:12:06;;;;;;;30.08;12.25;;;;;;;;;;4929884;28;20048;-54
2021/05/11 04:16:57;;;;;;;40.08;12.82;;;;;;;;;;4924610;28;20090;-53
2021/05/11 04:19:23;;;;;;;33.78;14.02;;;;;;;;;;4925944;28;20059;-54
2021/05/11 04:21:48;;;;;;;31.02;12.88;;;;;;;;;;4924706;28;20150;-54
2021/05/11 04:24:16;;;;;;;44.05;14.65;;;;;;;;;;4937218;28;20051;-55
2021/05/11 04:26:41;;;;;;;34.83;13.70;;;;;;;;;;4914096;29;20039;-56
2021/05/11 04:29:07;;;;;;;35.13;14.63;;;;;;;;;;4925745;28;20047;-55
2021/05/11 04:31:37;;;;;;;37.83;13.52;;;;;;;;;;4940677;28;20092;-55
2021/05/11 04:34:04;;;;;;;34.17;13.00;;;;;;;;;;4941039;28;20047;-54
2021/05/11 04:36:32;;;;;;;50.65;12.85;;;;;;;;;;4924703;28;20036;-56
2021/05/11 04:39:03;;;;;;;36.17;13.52;;;;;;;;;;4928382;28;20027;-56
2021/05/11 04:41:31;;;;;;;35.38;12.93;;;;;;;;;;4924865;28;20043;-54
2021/05/11 04:44:00;;;;;;;30.75;12.20;;;;;;;;;;4927936;28;20031;-54
2021/05/11 04:46:40;;;;;;;26.58;12.68;;;;;;;;;;4941178;28;20161;-55
2021/05/11 04:49:07;;;;;;;31.55;12.18;;;;;;;;;;4927688;28;20069;-54
2021/05/11 04:51:33;;;;;;;30.73;11.88;;;;;;;;;;4912951;29;20071;-55
2021/05/11 04:53:59;;;;;;;28.25;11.13;;;;;;;;;;4924710;28;20035;-55
2021/05/11 04:56:29;;;;;;;29.10;12.02;;;;;;;;;;4924935;28;20027;-55
2021/05/11 04:58:59;;;;;;;23.10;10.55;;;;;;;;;;4925315;28;20126;-55
2021/05/11 05:01:27;;;;;;;30.38;10.98;;;;;;;;;;4937896;28;20035;-55
2021/05/11 05:03:58;;;;;;;25.30;10.25;;;;;;;;;;4922503;28;20035;-54
2021/05/11 05:06:25;;;;;;;28.45;10.77;;;;;;;;;;4937318;28;20154;-54
2021/05/11 05:08:51;;;;;;;35.03;11.73;;;;;;;;;;4925284;28;20963;-55
2021/05/11 05:11:17;;;;;;;29.73;10.80;;;;;;;;;;4939338;28;20031;-54
2021/05/11 05:13:43;;;;;;;26.33;11.13;;;;;;;;;;4923753;28;20389;-55
2021/05/11 05:16:10;;;;;;;22.30;10.27;;;;;;;;;;4927097;28;20474;-56
2021/05/11 05:18:38;;;;;;;23.23;10.27;;;;;;;;;;4910200;29;20085;-55
2021/05/11 05:21:07;;;;;;;25.92;11.57;;;;;;;;;;4928215;28;20044;-55
2021/05/11 05:23:39;;;;;;;25.35;10.20;;;;;;;;;;4925913;28;20122;-54
2021/05/11 05:26:10;;;;;;;25.50;10.43;;;;;;;;;;4925020;28;22170;-56
2021/05/11 05:28:39;;;;;;;27.00;10.75;;;;;;;;;;4938409;28;20035;-56
2021/05/11 05:31:05;;;;;;;23.80;9.82;;;;;;;;;;4924937;28;20027;-55
2021/05/11 05:33:35;;;;;;;23.35;10.30;;;;;;;;;;4925751;28;20114;-56
2021/05/11 05:36:03;;;;;;;25.98;10.70;;;;;;;;;;4935627;28;20037;-57
2021/05/11 05:38:33;;;;;;;22.33;10.30;;;;;;;;;;4941060;28;20067;-55
2021/05/11 05:41:04;;;;;;;22.17;10.60;;;;;;;;;;4921331;28;20036;-55
2021/05/11 05:43:29;;;;;;;22.20;9.93;;;;;;;;;;4906981;29;20038;-56
2021/05/11 05:45:55;;;;;;;17.48;8.55;;;;;;;;;;4912115;28;20027;-56
2021/05/11 05:48:22;;;;;;;31.13;10.45;;;;;;;;;;4924070;28;20085;-56
2021/05/11 05:50:52;;;;;;;19.63;9.68;;;;;;;;;;4927949;28;22221;-55
2021/05/11 05:53:31;;;;;;;24.00;9.63;;;;;;;;;;4924722;28;20034;-55
2021/05/11 05:55:56;;;;;;;22.67;9.98;;;;;;;;;;4923064;28;20023;-55
2021/05/11 05:58:24;;;;;;;31.45;11.00;;;;;;;;;;4924736;28;20731;-55
2021/05/11 06:00:58;;;;;;;18.30;9.88;;;;;;;;;;4920580;28;20023;-54
2021/05/11 06:06:08;;;;;;;22.27;9.80;;;;;;;;;;4916066;28;20157;-55
2021/05/11 06:08:35;;;;;;;18.33;9.88;;;;;;;;;;4914054;28;20040;-56
2021/05/11 06:11:12;;;;;;;22.55;10.45;;;;;;;;;;4917458;28;20126;-55
2021/05/11 06:13:42;;;;;;;15.55;8.98;;;;;;;;;;4909681;28;20134;-56
2021/05/11 06:18:55;;;;;;;19.83;10.30;;;;;;;;;;4916339;28;20538;-55
2021/05/11 06:21:28;;;;;;;20.30;10.35;;;;;;;;;;4928897;28;22304;-57
2021/05/11 06:23:56;;;;;;;20.38;10.07;;;;;;;;;;4912104;28;20039;-56
2021/05/11 06:26:21;;;;;;;19.00;9.95;;;;;;;;;;4902961;28;20064;-56
2021/05/11 06:28:47;;;;;;;26.23;10.23;;;;;;;;;;4933034;28;20031;-54
2021/05/11 06:31:12;;;;;;;19.10;10.18;;;;;;;;;;4913300;28;20047;-54
2021/05/11 06:33:41;;;;;;;19.60;7.82;;;;;;;;;;4928669;28;20043;-57
2021/05/11 06:36:06;;;;;;;14.32;8.43;;;;;;;;;;4913758;28;20046;-56
2021/05/11 06:38:32;;;;;;;16.10;8.20;;;;;;;;;;4899716;28;20752;-55
2021/05/11 06:40:58;;;;;;;15.63;8.52;;;;;;;;;;4882805;28;20067;-55
2021/05/11 06:43:27;;;;;;;18.45;8.50;;;;;;;;;;4899195;28;20050;-55
2021/05/11 06:48:49;;;;;;;17.17;7.57;;;;;;;;;;4923744;28;20043;-54
2021/05/11 06:53:42;;;;;;;7.93;4.72;;;;;;;;;;4922187;28;20113;-55
2021/05/11 06:56:09;;;;;;;6.07;4.70;;;;;;;;;;4922524;28;20045;-56
2021/05/11 06:58:35;;;;;;;5.75;4.07;;;;;;;;;;4926234;28;20093;-56
2021/05/11 07:01:02;;;;;;;6.25;4.22;;;;;;;;;;4921674;28;20036;-56
2021/05/11 07:03:30;;;;;;;6.40;4.00;;;;;;;;;;4922281;28;20073;-55
2021/05/11 07:05:56;;;;;;;7.05;3.72;;;;;;;;;;4922758;28;20034;-52
2021/05/11 07:08:38;;;;;;;6.70;3.28;;;;;;;;;;4922880;28;20031;-56
2021/05/11 07:11:30;;;;;;;5.47;3.08;;;;;;;;;;4935893;28;20131;-54
2021/05/11 07:13:50;;;;;;;8.23;3.17;;;;;;;;;;4922136;28;20959;-57
2021/05/11 07:16:18;;;;;;;3.08;2.15;;;;;;;;;;4937322;28;20072;-55
2021/05/11 07:18:46;;;;;;;5.53;2.47;;;;;;;;;;4909581;28;20038;-54
2021/05/11 07:21:14;;;;;;;3.85;2.50;;;;;;;;;;4924093;28;20034;-55
2021/05/11 07:23:40;;;;;;;3.72;2.67;;;;;;;;;;4938245;28;20039;-56
2021/05/11 07:26:13;;;;;;;9.77;3.20;;;;;;;;;;4921386;28;20051;-58
2021/05/11 07:31:14;;;;;;;9.57;2.92;;;;;;;;;;4919430;28;20180;-54
2021/05/11 07:36:08;;;;;;;3.00;2.00;;;;;;;;;;4922217;28;21084;-55
2021/05/11 07:38:34;;;;;;;3.78;2.25;;;;;;;;;;4923087;28;20031;-55
2021/05/11 07:41:00;;;;;;;5.03;2.30;;;;;;;;;;4921351;28;20615;-53
2021/05/11 07:43:27;;;;;;;6.18;2.20;;;;;;;;;;4917765;28;20035;-56
2021/05/11 08:15:52;;;;;;;4.35;3.13;;;;;;;;;;4921420;28;20090;-58
2021/05/11 08:18:33;;;;;;;6.50;3.63;;;;;;;;;;4910248;29;20046;-57
2021/05/11 08:29:21;;;;;;;6.72;4.10;;;;;;;;;;4921015;28;20035;-58
2021/05/11 08:31:49;;;;;;;10.75;4.40;;;;;;;;;;4919886;28;20624;-58
2021/05/11 08:34:17;;;;;;;5.65;3.85;;;;;;;;;;4920436;28;20662;-58
2021/05/11 08:36:42;;;;;;;5.43;3.92;;;;;;;;;;4921743;28;20038;-58
2021/05/11 08:39:11;;;;;;;6.43;4.22;;;;;;;;;;4921557;28;20032;-59
2021/05/11 08:41:38;;;;;;;6.15;3.63;;;;;;;;;;4922859;28;20070;-62
2021/05/11 08:44:15;;;;;;;6.47;3.78;;;;;;;;;;4910038;29;20035;-58
2021/05/11 08:46:43;;;;;;;8.35;4.38;;;;;;;;;;4922389;28;20458;-60
2021/05/11 08:49:14;;;;;;;6.38;4.20;;;;;;;;;;4919046;28;20036;-58
2021/05/11 09:04:34;;;;;;;7.57;3.83;;;;;;;;;;4914461;28;20107;-59
2021/05/11 09:26:23;;;;;;;3.53;2.80;;;;;;;;;;4923432;28;20054;-62
2021/05/11 09:28:24;;;;;;;5.15;2.47;;;;;;;;;;4915540;28;20040;-58
2021/05/11 09:33:32;;;;;;;2.08;1.92;;;;;;;;;;4921630;28;20359;-59
2021/05/11 09:56:06;;;;;;;2.40;1.30;;;;;;;;;;4924021;28;20127;-58
2021/05/11 10:48:00;;;;;;;1.02;0.50;;;;;;;;;;4924426;29;20042;-59
2021/05/11 10:50:43;;;;;;;2.05;0.38;;;;;;;;;;4921012;28;20655;-59
2021/05/11 10:53:32;;;;;;;0.80;0.52;;;;;;;;;;4923239;28;20503;-59
2021/05/11 10:56:30;;;;;;;1.23;0.70;;;;;;;;;;4922514;28;20063;-58
2021/05/11 11:01:56;;;;;;;7.28;0.77;;;;;;;;;;4924688;28;20070;-60
2021/05/11 11:04:31;;;;;;;2.97;1.05;;;;;;;;;;4921771;28;21884;-59
2021/05/11 11:07:00;;;;;;;1.73;0.83;;;;;;;;;;4921625;28;20042;-59
2021/05/11 11:09:26;;;;;;;1.67;1.10;;;;;;;;;;4921375;28;20128;-60
2021/05/11 11:11:52;;;;;;;1.27;1.13;;;;;;;;;;4910048;29;20032;-58
2021/05/11 11:14:20;;;;;;;2.60;1.05;;;;;;;;;;4923598;28;20106;-59
2021/05/11 11:16:46;;;;;;;1.17;1.08;;;;;;;;;;4905012;29;20027;-59
2021/05/11 11:19:12;;;;;;;1.88;0.93;;;;;;;;;;4923041;28;20035;-60
2021/05/11 11:24:44;;;;;;;0.55;0.52;;;;;;;;;;4921609;28;20069;-59
2021/05/11 11:27:10;;;;;;;0.60;0.60;;;;;;;;;;4922227;28;20110;-59
2021/05/11 11:29:36;;;;;;;1.70;0.52;;;;;;;;;;4929568;28;20047;-58
2021/05/11 11:32:02;;;;;;;1.25;0.57;;;;;;;;;;4909190;28;20028;-59
2021/05/11 11:34:33;;;;;;;1.42;0.65;;;;;;;;;;4910655;28;21069;-59
2021/05/11 11:37:01;;;;;;;5.47;0.85;;;;;;;;;;4924234;28;20031;-58
2021/05/11 11:39:28;;;;;;;0.77;0.50;;;;;;;;;;4923886;28;20118;-59
2021/05/11 11:41:54;;;;;;;0.47;0.40;;;;;;;;;;4938042;28;20031;-59
2021/05/11 11:44:21;;;;;;;0.80;0.35;;;;;;;;;;4922926;28;20027;-59
2021/05/11 11:47:11;;;;;;;0.90;0.50;;;;;;;;;;4920898;28;20497;-59
2021/05/11 11:49:42;;;;;;;1.02;0.40;;;;;;;;;;4938903;28;20034;-59
2021/05/11 11:57:46;;;;;;;1.13;0.30;;;;;;;;;;4924121;28;20068;-59
2021/05/11 12:00:24;;;;;;;1.23;0.40;;;;;;;;;;4935605;28;20509;-59
2021/05/11 12:02:58;;;;;;;0.65;0.43;;;;;;;;;;4921417;28;20028;-59
2021/05/11 12:05:24;;;;;;;0.93;0.60;;;;;;;;;;4922250;28;20035;-58
2021/05/11 12:08:03;;;;;;;0.60;0.55;;;;;;;;;;4908736;29;20035;-59
2021/05/11 12:10:29;;;;;;;1.23;0.40;;;;;;;;;;4920707;28;20050;-59
2021/05/11 12:12:58;;;;;;;0.35;0.35;;;;;;;;;;4921279;28;21894;-59
2021/05/11 12:15:24;;;;;;;2.92;0.75;;;;;;;;;;4920086;28;20094;-59
2021/05/11 12:18:06;;;;;;;1.40;0.60;;;;;;;;;;4924016;28;21618;-59
2021/05/11 12:20:35;;;;;;;0.52;0.52;;;;;;;;;;4922448;28;20028;-59
2021/05/11 12:23:07;;;;;;;3.15;0.65;;;;;;;;;;4923262;28;20085;-58
2021/05/11 12:25:33;;;;;;;1.48;0.75;;;;;;;;;;4920347;28;20067;-59
2021/05/11 12:27:59;;;;;;;2.13;0.50;;;;;;;;;;4920096;28;20114;-60
2021/05/11 12:30:37;;;;;;;1.98;0.75;;;;;;;;;;4934839;28;20039;-58
2021/05/11 12:33:03;;;;;;;0.22;0.22;;;;;;;;;;4920326;28;20051;-59
2021/05/11 12:35:31;;;;;;;0.30;0.30;;;;;;;;;;4912896;28;20715;-59
2021/05/11 12:38:00;;;;;;;1.10;0.40;;;;;;;;;;4923559;28;20166;-60
2021/05/11 12:40:40;;;;;;;1.00;0.32;;;;;;;;;;4924976;28;20110;-59
2021/05/11 12:43:05;;;;;;;0.88;0.50;;;;;;;;;;4923943;28;20455;-59
2021/05/11 12:45:39;;;;;;;1.13;0.40;;;;;;;;;;4893282;29;20059;-59
2021/05/11 12:48:07;;;;;;;1.73;0.70;;;;;;;;;;4925527;28;20031;-59
2021/05/11 12:50:43;;;;;;;1.67;0.75;;;;;;;;;;4940507;28;20031;-60
2021/05/11 13:26:02;;;;;;;3.13;0.80;;;;;;;;;;4926804;28;20972;-59
2021/05/11 13:28:33;;;;;;;1.27;0.73;;;;;;;;;;4925518;28;20091;-59
2021/05/11 13:31:04;;;;;;;0.55;0.55;;;;;;;;;;4927390;28;20043;-59
2021/05/11 13:34:13;;;;;;;1.40;0.47;;;;;;;;;;4922815;28;21308;-59
2021/05/11 13:36:21;;;;;;;3.85;0.55;;;;;;;;;;4919709;28;20419;-59
2021/05/11 13:38:46;;;;;;;1.00;0.45;;;;;;;;;;4923099;28;20063;-59
2021/05/11 13:41:11;;;;;;;0.40;0.40;;;;;;;;;;4925891;28;20062;-58
2021/05/11 13:43:37;;;;;;;0.75;0.60;;;;;;;;;;4895605;28;20087;-59
2021/05/11 13:46:05;;;;;;;1.15;0.80;;;;;;;;;;4940039;28;20432;-58
2021/05/11 13:48:38;;;;;;;1.50;0.80;;;;;;;;;;4925406;28;20094;-59
2021/05/11 13:51:19;;;;;;;2.00;0.95;;;;;;;;;;4922604;28;20031;-59
2021/05/11 13:53:48;;;;;;;1.40;0.73;;;;;;;;;;4926450;28;20038;-59
2021/05/11 14:03:58;;;;;;;2.10;1.35;;;;;;;;;;4925570;28;20031;-61
2021/05/11 14:06:24;;;;;;;1.15;1.05;;;;;;;;;;4921615;28;20047;-59
2021/05/11 14:08:49;;;;;;;2.10;1.48;;;;;;;;;;4924777;28;20145;-59
2021/05/11 14:11:15;;;;;;;1.40;1.25;;;;;;;;;;4922612;28;20671;-59
2021/05/11 14:13:40;;;;;;;2.45;1.50;;;;;;;;;;4911708;28;20043;-59
2021/05/11 14:16:12;;;;;;;1.88;1.40;;;;;;;;;;4922651;28;20027;-59
2021/05/11 14:18:38;;;;;;;2.65;1.40;;;;;;;;;;4908504;29;20047;-59
2021/05/11 14:21:06;;;;;;;2.90;1.27;;;;;;;;;;4938307;28;20115;-58
2021/05/11 14:23:32;;;;;;;1.52;1.05;;;;;;;;;;4922578;28;20028;-60
2021/05/11 14:26:01;;;;;;;2.08;1.13;;;;;;;;;;4922587;28;20062;-59
2021/05/11 14:28:27;;;;;;;4.93;1.08;;;;;;;;;;4929310;28;20093;-58
2021/05/11 14:30:55;;;;;;;0.80;0.80;;;;;;;;;;4925851;28;20035;-58
2021/05/11 14:33:23;;;;;;;0.60;0.60;;;;;;;;;;4922060;28;20055;-59
2021/05/11 14:35:53;;;;;;;1.52;0.85;;;;;;;;;;4924183;28;20045;-59
2021/05/11 14:38:19;;;;;;;0.75;0.63;;;;;;;;;;4923220;28;20070;-59
2021/05/11 14:40:45;;;;;;;0.60;0.43;;;;;;;;;;4923070;28;20041;-58
2021/05/11 14:43:10;;;;;;;1.65;0.60;;;;;;;;;;4921124;28;20028;-59
2021/05/11 14:45:36;;;;;;;1.13;0.60;;;;;;;;;;4918305;28;20555;-59
2021/05/11 14:48:01;;;;;;;0.47;0.30;;;;;;;;;;4922229;28;20495;-59
2021/05/11 14:50:27;;;;;;;0.60;0.40;;;;;;;;;;4917732;28;21510;-59
2021/05/11 14:52:57;;;;;;;1.08;0.70;;;;;;;;;;4919025;28;20119;-58
2021/05/11 14:55:27;;;;;;;1.85;0.60;;;;;;;;;;4922141;28;20039;-59
2021/05/11 14:57:54;;;;;;;2.38;0.50;;;;;;;;;;4919048;28;20944;-59
2021/05/11 15:00:23;;;;;;;0.50;0.50;;;;;;;;;;4922853;28;20500;-58
2021/05/11 15:02:48;;;;;;;0.50;0.50;;;;;;;;;;4909300;29;20146;-59
2021/05/11 15:05:14;;;;;;;1.42;0.60;;;;;;;;;;4936323;28;20040;-58
2021/05/11 15:07:39;;;;;;;1.20;0.57;;;;;;;;;;4913611;28;20035;-58
2021/05/11 15:10:10;;;;;;;2.85;0.40;;;;;;;;;;4914730;28;20035;-60
2021/05/11 15:12:36;;;;;;;0.93;0.57;;;;;;;;;;4899580;29;20045;-59
2021/05/11 15:15:02;;;;;;;1.33;0.63;;;;;;;;;;4918615;28;20195;-58
2021/05/11 15:19:56;;;;;;;1.33;0.57;;;;;;;;;;4914601;28;20071;-59
2021/05/11 15:22:24;;;;;;;0.43;0.43;;;;;;;;;;4913788;28;20034;-59
2021/05/11 15:24:52;;;;;;;1.20;0.55;;;;;;;;;;4913363;28;20035;-60
2021/05/11 15:27:18;;;;;;;1.55;0.20;;;;;;;;;;4908123;29;20114;-59
2021/05/11 15:29:44;;;;;;;0.77;0.52;;;;;;;;;;4922840;28;20035;-60
2021/05/11 15:32:28;;;;;;;1.75;0.50;;;;;;;;;;4922674;28;20023;-59
2021/05/11 15:34:54;;;;;;;1.00;0.40;;;;;;;;;;4920387;28;20049;-59
2021/05/11 15:37:19;;;;;;;0.70;0.28;;;;;;;;;;4922275;28;20038;-59
2021/05/11 15:39:47;;;;;;;3.20;0.60;;;;;;;;;;4919300;28;20031;-59
2021/05/11 15:42:12;;;;;;;1.13;0.40;;;;;;;;;;4924641;28;20035;-59
2021/05/11 15:44:40;;;;;;;3.38;0.73;;;;;;;;;;4919882;28;20110;-58
2021/05/11 15:47:06;;;;;;;1.70;0.70;;;;;;;;;;4920379;28;20046;-57
2021/05/11 15:49:32;;;;;;;0.70;0.70;;;;;;;;;;4937347;28;20036;-58
2021/05/11 15:51:58;;;;;;;3.55;1.27;;;;;;;;;;4919515;28;20126;-59
2021/05/11 15:54:24;;;;;;;1.58;1.20;;;;;;;;;;4909394;28;20036;-59
2021/05/11 15:56:50;;;;;;;2.55;1.70;;;;;;;;;;4919805;28;20423;-59
2021/05/11 15:59:15;;;;;;;1.20;1.10;;;;;;;;;;4920282;28;20077;-58
2021/05/11 16:01:41;;;;;;;2.05;1.10;;;;;;;;;;4917039;28;20039;-59
2021/05/11 16:04:06;;;;;;;2.63;1.00;;;;;;;;;;4923443;28;20158;-58
2021/05/11 16:06:34;;;;;;;6.38;1.17;;;;;;;;;;4921841;28;20070;-58
2021/05/11 16:09:00;;;;;;;1.67;1.30;;;;;;;;;;4921498;28;20027;-59
2021/05/11 16:11:28;;;;;;;3.25;1.25;;;;;;;;;;4925283;28;20093;-59
2021/05/11 16:13:54;;;;;;;1.92;1.20;;;;;;;;;;4921590;28;20059;-59
2021/05/11 16:16:21;;;;;;;1.55;1.08;;;;;;;;;;4939774;28;20039;-59
2021/05/11 16:18:49;;;;;;;5.93;1.48;;;;;;;;;;4924439;28;20179;-59
2021/05/11 16:21:15;;;;;;;2.67;1.15;;;;;;;;;;4926255;28;20082;-57
2021/05/11 16:23:40;;;;;;;2.70;1.30;;;;;;;;;;4926823;28;20023;-57
2021/05/11 16:26:06;;;;;;;2.88;1.50;;;;;;;;;;4907439;28;20064;-57
2021/05/11 16:28:34;;;;;;;3.92;1.10;;;;;;;;;;4922561;28;20552;-59
2021/05/11 16:31:00;;;;;;;6.93;1.48;;;;;;;;;;4924225;28;20050;-58
2021/05/11 16:33:25;;;;;;;3.03;1.20;;;;;;;;;;4937853;28;20031;-58
2021/05/11 16:35:51;;;;;;;4.28;1.33;;;;;;;;;;4924177;28;20042;-57
2021/05/11 16:38:18;;;;;;;2.28;1.13;;;;;;;;;;4910115;28;20051;-58
2021/05/11 16:40:43;;;;;;;3.45;1.42;;;;;;;;;;4922329;28;20035;-57
2021/05/11 16:43:11;;;;;;;2.03;1.58;;;;;;;;;;4930339;28;20069;-57
2021/05/11 16:45:37;;;;;;;3.03;1.30;;;;;;;;;;4925062;28;20130;-57
2021/05/11 16:48:03;;;;;;;1.90;1.27;;;;;;;;;;4925245;28;20039;-57
2021/05/11 16:50:33;;;;;;;1.63;1.25;;;;;;;;;;4923809;28;20404;-57
2021/05/11 16:53:03;;;;;;;3.50;1.38;;;;;;;;;;4940131;28;20066;-55
2021/05/11 16:55:28;;;;;;;3.60;2.38;;;;;;;;;;4937290;28;20027;-58
2021/05/11 16:57:56;;;;;;;3.22;1.73;;;;;;;;;;4909157;28;20220;-58
2021/05/11 17:00:22;;;;;;;1.77;1.58;;;;;;;;;;4924608;28;20034;-57
2021/05/11 17:02:50;;;;;;;3.72;1.83;;;;;;;;;;4923454;28;21533;-57
2021/05/11 17:05:19;;;;;;;2.65;1.63;;;;;;;;;;4924668;28;20031;-58
2021/05/11 17:07:45;;;;;;;2.60;2.10;;;;;;;;;;4924138;28;20077;-57
2021/05/11 17:10:12;;;;;;;5.68;1.80;;;;;;;;;;4923679;28;20063;-57
2021/05/11 17:12:37;;;;;;;2.75;1.80;;;;;;;;;;4924857;28;20101;-57
2021/05/11 17:15:11;;;;;;;3.25;2.03;;;;;;;;;;4910514;28;20047;-58
2021/05/11 17:17:36;;;;;;;5.78;1.90;;;;;;;;;;4925184;28;20908;-57
2021/05/11 17:20:02;;;;;;;8.38;2.22;;;;;;;;;;4925861;28;20047;-58
2021/05/11 17:22:30;;;;;;;3.92;2.03;;;;;;;;;;4921319;28;20586;-58
2021/05/11 17:24:57;;;;;;;6.32;2.10;;;;;;;;;;4924186;28;20027;-57
2021/05/11 17:27:22;;;;;;;3.88;2.00;;;;;;;;;;4925767;28;20055;-58
2021/05/11 17:29:52;;;;;;;6.55;2.65;;;;;;;;;;4925136;28;20062;-57
2021/05/11 17:32:21;;;;;;;6.55;2.58;;;;;;;;;;4926010;28;20027;-58
2021/05/11 17:34:47;;;;;;;6.68;2.22;;;;;;;;;;4922781;28;20089;-58
2021/05/11 17:37:12;;;;;;;9.75;2.90;;;;;;;;;;4923475;28;20051;-59
2021/05/11 17:39:38;;;;;;;7.32;2.90;;;;;;;;;;4895166;28;20046;-58
2021/05/11 17:42:06;;;;;;;4.78;2.72;;;;;;;;;;4926102;28;20042;-56
2021/05/11 17:44:32;;;;;;;9.40;3.00;;;;;;;;;;4911344;28;20026;-59
2021/05/11 17:46:58;;;;;;;9.25;3.42;;;;;;;;;;4925687;28;20056;-58
2021/05/11 17:49:23;;;;;;;8.45;4.10;;;;;;;;;;4922362;28;20945;-58
2021/05/11 17:51:48;;;;;;;12.75;4.15;;;;;;;;;;4925701;28;20076;-59
2021/05/11 17:54:14;;;;;;;9.77;5.13;;;;;;;;;;4923374;28;20030;-58
2021/05/11 17:56:40;;;;;;;8.77;4.88;;;;;;;;;;4922173;28;20035;-58
2021/05/11 17:59:05;;;;;;;10.20;4.78;;;;;;;;;;4924333;28;20039;-59
2021/05/11 18:01:30;;;;;;;10.38;4.43;;;;;;;;;;4924810;28;20027;-59
2021/05/11 18:03:56;;;;;;;8.43;4.97;;;;;;;;;;4911128;28;20874;-59
2021/05/11 18:06:22;;;;;;;8.90;5.28;;;;;;;;;;4927588;28;20110;-58
2021/05/11 18:08:48;;;;;;;13.38;5.10;;;;;;;;;;4921573;28;20071;-58
2021/05/11 18:11:16;;;;;;;9.80;5.90;;;;;;;;;;4926294;28;20731;-58
2021/05/11 18:13:42;;;;;;;16.38;6.63;;;;;;;;;;4920812;28;20114;-58
2021/05/11 18:16:09;;;;;;;13.10;5.88;;;;;;;;;;4924808;28;20079;-58
2021/05/11 18:18:35;;;;;;;15.55;6.28;;;;;;;;;;4937747;28;20047;-59
2021/05/11 18:21:01;;;;;;;17.58;5.28;;;;;;;;;;4920388;28;20071;-58
2021/05/11 18:23:27;;;;;;;10.77;4.55;;;;;;;;;;4923662;28;20036;-59
2021/05/11 18:25:52;;;;;;;13.20;4.07;;;;;;;;;;4921246;28;20416;-59
2021/05/11 18:28:18;;;;;;;9.10;4.78;;;;;;;;;;4937105;28;20047;-58
2021/05/11 18:30:43;;;;;;;10.43;4.78;;;;;;;;;;4923466;28;20034;-59
2021/05/11 18:33:09;;;;;;;9.48;4.88;;;;;;;;;;4924186;28;21377;-59
2021/05/11 18:35:37;;;;;;;13.75;5.28;;;;;;;;;;4920308;28;20082;-57
2021/05/11 18:38:05;;;;;;;17.88;4.90;;;;;;;;;;4922060;28;20034;-59
2021/05/11 18:40:31;;;;;;;9.20;4.55;;;;;;;;;;4925253;28;20094;-58
2021/05/11 18:43:02;;;;;;;9.32;4.55;;;;;;;;;;4908693;28;20158;-59
2021/05/11 18:45:28;;;;;;;10.00;5.38;;;;;;;;;;4923728;28;20176;-59
2021/05/11 18:47:57;;;;;;;9.50;4.47;;;;;;;;;;4923372;28;20085;-59
2021/05/11 18:50:24;;;;;;;10.77;5.00;;;;;;;;;;4919612;28;20145;-58
2021/05/11 18:52:49;;;;;;;17.65;4.93;;;;;;;;;;4923141;28;21076;-59
2021/05/11 18:55:15;;;;;;;12.57;5.57;;;;;;;;;;4922774;28;20050;-58
2021/05/11 18:57:42;;;;;;;13.95;7.40;;;;;;;;;;4920819;28;20042;-58
2021/05/11 19:00:08;;;;;;;15.85;5.22;;;;;;;;;;4919913;28;20665;-61
2021/05/11 19:02:33;;;;;;;10.70;5.65;;;;;;;;;;4936248;28;20035;-61
2021/05/11 19:04:59;;;;;;;11.65;5.18;;;;;;;;;;4921164;28;20541;-59